sensor_id;sensor_type;location;lat;lon;timestamp;temperature;humidity
18868;DHT22;9563;49.240;9.088;2023-08-20T04:00:39;20.40;99.90
18868;DHT22;9563;49.240;9.088;2023-08-20T04:03:06;20.30;99.90
18868;DHT22;9563;49.240;9.088;2023-08-20T04:05:36;20.30;99.90
18868;DHT22;9563;49.240;9.088;2023-08-20T04:08:03;20.30;99.90
18868;DHT22;9563;49.240;9.088;2023-08-20T04:10:30;20.30;99.90
18868;DHT22;9563;49.240;9.088;2023-08-20T04:12:58;20.30;99.90
18868;DHT22;9563;49.240;9.088;2023-08-20T04:15:25;20.30;99.90
18868;DHT22;9563;49.240;9.088;2023-08-20T04:17:53;20.40;99.90
18868;DHT22;9563;49.240;9.088;2023-08-20T04:20:20;20.40;99.90
18868;DHT22;9563;49.240;9.088;2023-08-20T04:22:46;20.40;99.90
18868;DHT22;9563;49.240;9.088;2023-08-20T04:25:14;20.40;99.90
18868;DHT22;9563;49.240;9.088;2023-08-20T04:27:41;20.40;99.90
18868;DHT22;9563;49.240;9.088;2023-08-20T04:30:09;20.40;99.90
18868;DHT22;9563;49.240;9.088;2023-08-20T04:32:36;20.40;99.90
18868;DHT22;9563;49.240;9.088;2023-08-20T04:35:05;20.30;99.90
18868;DHT22;9563;49.240;9.088;2023-08-20T04:37:32;20.20;99.90
18868;DHT22;9563;49.240;9.088;2023-08-20T04:39:59;20.10;99.90
18868;DHT22;9563;49.240;9.088;2023-08-20T04:42:25;20.10;99.90
18868;DHT22;9563;49.240;9.088;2023-08-20T04:44:52;20.10;99.90
18868;DHT22;9563;49.240;9.088;2023-08-20T04:47:19;20.10;99.90
18868;DHT22;9563;49.240;9.088;2023-08-20T04:49:46;20.10;99.90
18868;DHT22;9563;49.240;9.088;2023-08-20T04:52:14;20.10;99.90
18868;DHT22;9563;49.240;9.088;2023-08-20T04:54:41;20.20;99.90
18868;DHT22;9563;49.240;9.088;2023-08-20T04:57:08;20.20;99.90
18868;DHT22;9563;49.240;9.088;2023-08-20T04:59:34;20.20;99.90
18868;DHT22;9563;49.240;9.088;2023-08-20T05:02:01;20.20;99.90
18868;DHT22;9563;49.240;9.088;2023-08-20T05:04:28;20.20;99.90
18868;DHT22;9563;49.240;9.088;2023-08-20T05:06:55;20.30;99.90
18868;DHT22;9563;49.240;9.088;2023-08-20T05:09:23;20.30;99.90
18868;DHT22;9563;49.240;9.088;2023-08-20T05:11:50;20.20;99.90
18868;DHT22;9563;49.240;9.088;2023-08-20T05:14:17;20.30;99.90
18868;DHT22;9563;49.240;9.088;2023-08-20T05:16:44;20.40;99.90
18868;DHT22;9563;49.240;9.088;2023-08-20T05:19:11;20.40;99.90
18868;DHT22;9563;49.240;9.088;2023-08-20T05:21:37;20.50;99.90
18868;DHT22;9563;49.240;9.088;2023-08-20T05:24:05;20.60;99.90
18868;DHT22;9563;49.240;9.088;2023-08-20T05:26:34;20.70;99.90
18868;DHT22;9563;49.240;9.088;2023-08-20T05:29:01;20.80;99.90
18868;DHT22;9563;49.240;9.088;2023-08-20T05:31:27;20.90;99.90
18868;DHT22;9563;49.240;9.088;2023-08-20T05:33:54;20.90;99.90
18868;DHT22;9563;49.240;9.088;2023-08-20T05:36:22;21.00;99.90
18868;DHT22;9563;49.240;9.088;2023-08-20T05:38:49;21.10;99.90
18868;DHT22;9563;49.240;9.088;2023-08-20T05:41:16;21.10;99.90
18868;DHT22;9563;49.240;9.088;2023-08-20T05:43:44;21.10;99.90
18868;DHT22;9563;49.240;9.088;2023-08-20T05:46:11;21.20;99.90
18868;DHT22;9563;49.240;9.088;2023-08-20T05:48:38;21.20;99.90
18868;DHT22;9563;49.240;9.088;2023-08-20T05:51:05;21.20;99.90
18868;DHT22;9563;49.240;9.088;2023-08-20T05:53:31;21.30;99.90
18868;DHT22;9563;49.240;9.088;2023-08-20T05:55:58;21.40;99.90
18868;DHT22;9563;49.240;9.088;2023-08-20T05:58:25;21.50;99.90
18868;DHT22;9563;49.240;9.088;2023-08-20T06:00:53;21.70;99.90
18868;DHT22;9563;49.240;9.088;2023-08-20T06:03:20;21.80;99.90
18868;DHT22;9563;49.240;9.088;2023-08-20T06:05:47;21.80;99.90
18868;DHT22;9563;49.240;9.088;2023-08-20T06:08:14;21.90;99.90
18868;DHT22;9563;49.240;9.088;2023-08-20T06:10:40;21.90;99.90
18868;DHT22;9563;49.240;9.088;2023-08-20T06:13:07;22.00;99.90
18868;DHT22;9563;49.240;9.088;2023-08-20T06:15:34;22.00;99.90
18868;DHT22;9563;49.240;9.088;2023-08-20T06:18:02;22.10;99.90
18868;DHT22;9563;49.240;9.088;2023-08-20T06:20:29;22.20;99.90
18868;DHT22;9563;49.240;9.088;2023-08-20T06:22:56;22.30;99.90
18868;DHT22;9563;49.240;9.088;2023-08-20T06:25:23;22.40;99.90
18868;DHT22;9563;49.240;9.088;2023-08-20T06:27:49;22.50;99.90
18868;DHT22;9563;49.240;9.088;2023-08-20T06:30:16;22.60;99.90
18868;DHT22;9563;49.240;9.088;2023-08-20T06:32:44;22.70;99.90
18868;DHT22;9563;49.240;9.088;2023-08-20T06:35:12;22.80;99.90
18868;DHT22;9563;49.240;9.088;2023-08-20T06:37:39;22.90;99.90
18868;DHT22;9563;49.240;9.088;2023-08-20T06:40:07;23.00;99.90
18868;DHT22;9563;49.240;9.088;2023-08-20T06:42:34;23.10;99.90
18868;DHT22;9563;49.240;9.088;2023-08-20T06:45:01;23.10;99.90
18868;DHT22;9563;49.240;9.088;2023-08-20T06:47:28;23.20;99.90
18868;DHT22;9563;49.240;9.088;2023-08-20T06:49:55;23.30;99.90
18868;DHT22;9563;49.240;9.088;2023-08-20T06:52:23;23.40;99.90
18868;DHT22;9563;49.240;9.088;2023-08-20T06:54:49;23.40;99.90
18868;DHT22;9563;49.240;9.088;2023-08-20T06:57:16;23.50;99.90
18868;DHT22;9563;49.240;9.088;2023-08-20T06:59:43;23.70;99.90
18868;DHT22;9563;49.240;9.088;2023-08-20T07:02:10;23.90;99.90
18868;DHT22;9563;49.240;9.088;2023-08-20T07:04:37;24.00;99.90
18868;DHT22;9563;49.240;9.088;2023-08-20T07:07:04;24.00;99.90
18868;DHT22;9563;49.240;9.088;2023-08-20T07:09:32;24.00;99.90
18868;DHT22;9563;49.240;9.088;2023-08-20T07:11:59;24.00;99.90
18868;DHT22;9563;49.240;9.088;2023-08-20T07:14:26;24.10;99.90
18868;DHT22;9563;49.240;9.088;2023-08-20T07:16:53;24.10;99.90
18868;DHT22;9563;49.240;9.088;2023-08-20T07:19:19;24.20;99.90
18868;DHT22;9563;49.240;9.088;2023-08-20T07:21:46;24.20;99.90
18868;DHT22;9563;49.240;9.088;2023-08-20T07:24:13;24.30;99.90
18868;DHT22;9563;49.240;9.088;2023-08-20T07:26:41;24.40;99.90
18868;DHT22;9563;49.240;9.088;2023-08-20T07:29:09;24.70;99.90
18868;DHT22;9563;49.240;9.088;2023-08-20T07:31:36;24.80;99.90
18868;DHT22;9563;49.240;9.088;2023-08-20T07:34:02;24.90;99.90
18868;DHT22;9563;49.240;9.088;2023-08-20T07:36:30;24.90;99.90
18868;DHT22;9563;49.240;9.088;2023-08-20T07:38:57;24.90;99.90
18868;DHT22;9563;49.240;9.088;2023-08-20T07:41:23;25.00;99.90
18868;DHT22;9563;49.240;9.088;2023-08-20T07:43:52;25.00;99.90
18868;DHT22;9563;49.240;9.088;2023-08-20T07:46:19;25.00;99.90
18868;DHT22;9563;49.240;9.088;2023-08-20T07:48:46;25.10;99.90
18868;DHT22;9563;49.240;9.088;2023-08-20T07:51:12;25.30;99.90
18868;DHT22;9563;49.240;9.088;2023-08-20T07:53:39;25.60;99.90
18868;DHT22;9563;49.240;9.088;2023-08-20T07:56:06;26.00;99.90
18868;DHT22;9563;49.240;9.088;2023-08-20T07:58:34;26.30;99.90
18868;DHT22;9563;49.240;9.088;2023-08-20T08:01:02;26.70;99.90
18868;DHT22;9563;49.240;9.088;2023-08-20T08:03:34;26.90;99.90
18868;DHT22;9563;49.240;9.088;2023-08-20T08:06:01;27.00;99.90
18868;DHT22;9563;49.240;9.088;2023-08-20T08:08:28;27.10;99.90
18868;DHT22;9563;49.240;9.088;2023-08-20T08:10:55;27.00;99.90
18868;DHT22;9563;49.240;9.088;2023-08-20T08:13:22;26.80;99.90
18868;DHT22;9563;49.240;9.088;2023-08-20T08:15:50;26.70;99.90
18868;DHT22;9563;49.240;9.088;2023-08-20T08:18:18;26.50;99.90
18868;DHT22;9563;49.240;9.088;2023-08-20T08:20:46;26.50;99.90
18868;DHT22;9563;49.240;9.088;2023-08-20T08:23:12;26.40;99.90
18868;DHT22;9563;49.240;9.088;2023-08-20T08:25:40;26.40;99.90
18868;DHT22;9563;49.240;9.088;2023-08-20T08:28:07;26.40;99.90
18868;DHT22;9563;49.240;9.088;2023-08-20T08:30:34;26.40;99.90
18868;DHT22;9563;49.240;9.088;2023-08-20T08:33:01;26.30;99.90
18868;DHT22;9563;49.240;9.088;2023-08-20T08:35:29;26.40;99.90
18868;DHT22;9563;49.240;9.088;2023-08-20T08:37:56;26.60;99.90
18868;DHT22;9563;49.240;9.088;2023-08-20T08:40:26;26.80;99.90
18868;DHT22;9563;49.240;9.088;2023-08-20T08:42:54;27.10;99.90
18868;DHT22;9563;49.240;9.088;2023-08-20T08:45:21;27.30;99.90
18868;DHT22;9563;49.240;9.088;2023-08-20T08:47:49;27.40;99.90
18868;DHT22;9563;49.240;9.088;2023-08-20T08:50:16;27.40;99.90
18868;DHT22;9563;49.240;9.088;2023-08-20T08:52:45;27.40;99.90
18868;DHT22;9563;49.240;9.088;2023-08-20T08:55:13;27.50;99.90
18868;DHT22;9563;49.240;9.088;2023-08-20T08:57:40;27.70;99.90
18868;DHT22;9563;49.240;9.088;2023-08-20T09:00:08;27.90;99.90
18868;DHT22;9563;49.240;9.088;2023-08-20T09:02:35;28.00;99.90
18868;DHT22;9563;49.240;9.088;2023-08-20T09:05:02;27.90;99.90
18868;DHT22;9563;49.240;9.088;2023-08-20T09:07:31;28.00;99.90
18868;DHT22;9563;49.240;9.088;2023-08-20T09:09:59;28.00;99.90
18868;DHT22;9563;49.240;9.088;2023-08-20T09:12:26;28.00;99.90
18868;DHT22;9563;49.240;9.088;2023-08-20T09:14:54;27.90;99.90
18868;DHT22;9563;49.240;9.088;2023-08-20T09:17:26;27.80;99.90
18868;DHT22;9563;49.240;9.088;2023-08-20T09:19:55;27.80;99.90
18868;DHT22;9563;49.240;9.088;2023-08-20T09:22:23;28.00;99.90
18868;DHT22;9563;49.240;9.088;2023-08-20T09:24:54;28.30;99.90
18868;DHT22;9563;49.240;9.088;2023-08-20T09:27:23;28.60;99.90
18868;DHT22;9563;49.240;9.088;2023-08-20T09:29:51;28.90;99.90
18868;DHT22;9563;49.240;9.088;2023-08-20T09:32:19;29.10;99.90
18868;DHT22;9563;49.240;9.088;2023-08-20T09:34:48;29.20;99.90
18868;DHT22;9563;49.240;9.088;2023-08-20T09:37:18;29.20;99.90
18868;DHT22;9563;49.240;9.088;2023-08-20T09:39:46;29.40;99.90
18868;DHT22;9563;49.240;9.088;2023-08-20T09:42:13;29.70;99.90
18868;DHT22;9563;49.240;9.088;2023-08-20T09:44:43;30.00;99.90
18868;DHT22;9563;49.240;9.088;2023-08-20T09:47:11;30.30;99.90
18868;DHT22;9563;49.240;9.088;2023-08-20T09:49:41;30.60;99.90
18868;DHT22;9563;49.240;9.088;2023-08-20T09:52:09;30.80;99.90
18868;DHT22;9563;49.240;9.088;2023-08-20T09:54:52;30.90;99.90
18868;DHT22;9563;49.240;9.088;2023-08-20T09:57:29;31.10;99.90
18868;DHT22;9563;49.240;9.088;2023-08-20T10:00:00;31.30;99.90
18868;DHT22;9563;49.240;9.088;2023-08-20T10:02:26;31.40;99.90
18868;DHT22;9563;49.240;9.088;2023-08-20T10:04:53;31.50;99.90
18868;DHT22;9563;49.240;9.088;2023-08-20T10:07:22;31.50;99.90
18868;DHT22;9563;49.240;9.088;2023-08-20T10:09:51;31.70;99.90
18868;DHT22;9563;49.240;9.088;2023-08-20T10:12:18;31.80;99.90
18868;DHT22;9563;49.240;9.088;2023-08-20T10:14:45;31.90;99.90
18868;DHT22;9563;49.240;9.088;2023-08-20T10:17:14;32.00;99.90
18868;DHT22;9563;49.240;9.088;2023-08-20T10:19:41;32.10;99.90
18868;DHT22;9563;49.240;9.088;2023-08-20T10:22:08;32.20;99.90
18868;DHT22;9563;49.240;9.088;2023-08-20T10:24:46;32.30;99.90
18868;DHT22;9563;49.240;9.088;2023-08-20T10:27:24;32.50;99.90
18868;DHT22;9563;49.240;9.088;2023-08-20T10:29:52;32.70;99.90
18868;DHT22;9563;49.240;9.088;2023-08-20T10:32:46;32.80;99.90
18868;DHT22;9563;49.240;9.088;2023-08-20T10:35:15;32.80;99.90
18868;DHT22;9563;49.240;9.088;2023-08-20T10:38:00;32.90;99.90
18868;DHT22;9563;49.240;9.088;2023-08-20T10:40:47;33.10;99.90
18868;DHT22;9563;49.240;9.088;2023-08-20T10:43:27;33.30;99.90
18868;DHT22;9563;49.240;9.088;2023-08-20T10:46:07;33.30;99.90
18868;DHT22;9563;49.240;9.088;2023-08-20T10:48:38;33.40;99.90
18868;DHT22;9563;49.240;9.088;2023-08-20T10:51:13;33.40;99.90
18868;DHT22;9563;49.240;9.088;2023-08-20T10:53:41;33.50;99.90
18868;DHT22;9563;49.240;9.088;2023-08-20T10:56:11;33.60;99.90
18868;DHT22;9563;49.240;9.088;2023-08-20T10:58:42;33.60;99.90
18868;DHT22;9563;49.240;9.088;2023-08-20T11:01:18;33.80;99.90
18868;DHT22;9563;49.240;9.088;2023-08-20T11:03:48;33.90;99.90
18868;DHT22;9563;49.240;9.088;2023-08-20T11:06:15;34.00;99.90
18868;DHT22;9563;49.240;9.088;2023-08-20T11:08:42;34.00;99.90
18868;DHT22;9563;49.240;9.088;2023-08-20T11:11:10;34.10;99.90
18868;DHT22;9563;49.240;9.088;2023-08-20T11:13:37;34.10;99.90
18868;DHT22;9563;49.240;9.088;2023-08-20T11:16:05;34.10;99.90
18868;DHT22;9563;49.240;9.088;2023-08-20T11:18:33;34.00;99.90
18868;DHT22;9563;49.240;9.088;2023-08-20T11:21:01;34.00;99.90
18868;DHT22;9563;49.240;9.088;2023-08-20T11:23:29;34.00;99.90
18868;DHT22;9563;49.240;9.088;2023-08-20T11:25:57;34.10;99.90
18868;DHT22;9563;49.240;9.088;2023-08-20T11:28:26;34.20;99.90
18868;DHT22;9563;49.240;9.088;2023-08-20T11:30:53;34.30;99.90
18868;DHT22;9563;49.240;9.088;2023-08-20T11:33:21;34.30;99.90
18868;DHT22;9563;49.240;9.088;2023-08-20T11:35:48;34.20;99.90
18868;DHT22;9563;49.240;9.088;2023-08-20T11:38:17;34.20;99.90
18868;DHT22;9563;49.240;9.088;2023-08-20T11:40:43;34.30;99.90
18868;DHT22;9563;49.240;9.088;2023-08-20T11:43:10;34.20;99.90
18868;DHT22;9563;49.240;9.088;2023-08-20T11:45:45;34.10;99.90
18868;DHT22;9563;49.240;9.088;2023-08-20T11:48:13;34.10;99.90
18868;DHT22;9563;49.240;9.088;2023-08-20T11:50:40;34.20;99.90
18868;DHT22;9563;49.240;9.088;2023-08-20T11:53:08;34.10;99.90
18868;DHT22;9563;49.240;9.088;2023-08-20T11:55:38;34.30;99.90
18868;DHT22;9563;49.240;9.088;2023-08-20T11:58:05;34.60;99.90
18868;DHT22;9563;49.240;9.088;2023-08-20T12:00:32;34.50;99.90
18868;DHT22;9563;49.240;9.088;2023-08-20T12:02:58;34.40;99.90
18868;DHT22;9563;49.240;9.088;2023-08-20T12:05:28;34.10;99.90
18868;DHT22;9563;49.240;9.088;2023-08-20T12:07:56;34.30;99.90
18868;DHT22;9563;49.240;9.088;2023-08-20T12:10:24;34.40;99.90
18868;DHT22;9563;49.240;9.088;2023-08-20T12:12:53;34.60;99.90
18868;DHT22;9563;49.240;9.088;2023-08-20T12:15:21;34.60;99.90
18868;DHT22;9563;49.240;9.088;2023-08-20T12:17:59;34.60;99.90
18868;DHT22;9563;49.240;9.088;2023-08-20T12:20:28;34.70;99.90
18868;DHT22;9563;49.240;9.088;2023-08-20T12:22:57;34.60;99.90
18868;DHT22;9563;49.240;9.088;2023-08-20T12:25:24;34.40;99.90
18868;DHT22;9563;49.240;9.088;2023-08-20T12:27:53;34.40;99.90
18868;DHT22;9563;49.240;9.088;2023-08-20T12:30:19;34.30;99.90
18868;DHT22;9563;49.240;9.088;2023-08-20T12:32:46;34.30;99.90
18868;DHT22;9563;49.240;9.088;2023-08-20T12:35:13;34.30;99.90
18868;DHT22;9563;49.240;9.088;2023-08-20T12:37:40;34.50;99.90
18868;DHT22;9563;49.240;9.088;2023-08-20T12:40:08;34.50;99.90
18868;DHT22;9563;49.240;9.088;2023-08-20T12:42:36;34.40;99.90
18868;DHT22;9563;49.240;9.088;2023-08-20T12:45:06;34.40;99.90
18868;DHT22;9563;49.240;9.088;2023-08-20T12:47:33;34.50;99.90
18868;DHT22;9563;49.240;9.088;2023-08-20T12:50:00;34.30;99.90
18868;DHT22;9563;49.240;9.088;2023-08-20T12:52:28;34.20;99.90
18868;DHT22;9563;49.240;9.088;2023-08-20T12:54:55;34.10;99.00
18868;DHT22;9563;49.240;9.088;2023-08-20T12:57:22;34.10;99.40
18868;DHT22;9563;49.240;9.088;2023-08-20T12:59:49;34.30;99.90
18868;DHT22;9563;49.240;9.088;2023-08-20T13:02:18;34.40;99.90
18868;DHT22;9563;49.240;9.088;2023-08-20T13:04:45;34.30;96.20
18868;DHT22;9563;49.240;9.088;2023-08-20T13:07:12;34.00;97.30
18868;DHT22;9563;49.240;9.088;2023-08-20T13:09:40;33.90;99.80
18868;DHT22;9563;49.240;9.088;2023-08-20T13:12:09;33.90;99.90
18868;DHT22;9563;49.240;9.088;2023-08-20T13:14:38;33.80;98.40
18868;DHT22;9563;49.240;9.088;2023-08-20T13:17:06;33.90;99.90
18868;DHT22;9563;49.240;9.088;2023-08-20T13:19:36;34.00;99.90
18868;DHT22;9563;49.240;9.088;2023-08-20T13:22:03;34.10;99.10
18868;DHT22;9563;49.240;9.088;2023-08-20T13:24:29;34.20;99.90
18868;DHT22;9563;49.240;9.088;2023-08-20T13:26:56;34.20;99.90
18868;DHT22;9563;49.240;9.088;2023-08-20T13:29:23;34.20;99.90
18868;DHT22;9563;49.240;9.088;2023-08-20T13:31:50;34.30;99.30
18868;DHT22;9563;49.240;9.088;2023-08-20T13:34:17;34.30;99.90
18868;DHT22;9563;49.240;9.088;2023-08-20T13:36:45;34.10;99.90
18868;DHT22;9563;49.240;9.088;2023-08-20T13:39:13;34.20;99.90
18868;DHT22;9563;49.240;9.088;2023-08-20T13:41:40;33.90;99.90
18868;DHT22;9563;49.240;9.088;2023-08-20T13:44:07;33.80;99.90
18868;DHT22;9563;49.240;9.088;2023-08-20T13:46:34;33.80;99.90
18868;DHT22;9563;49.240;9.088;2023-08-20T13:49:01;33.80;99.90
18868;DHT22;9563;49.240;9.088;2023-08-20T13:51:29;33.60;99.90
18868;DHT22;9563;49.240;9.088;2023-08-20T13:53:57;33.60;99.90
18868;DHT22;9563;49.240;9.088;2023-08-20T13:56:24;33.60;99.90
18868;DHT22;9563;49.240;9.088;2023-08-20T13:58:52;33.60;99.90
18868;DHT22;9563;49.240;9.088;2023-08-20T14:01:19;33.70;99.90
18868;DHT22;9563;49.240;9.088;2023-08-20T14:03:46;33.70;99.90
18868;DHT22;9563;49.240;9.088;2023-08-20T14:06:13;33.70;99.90
18868;DHT22;9563;49.240;9.088;2023-08-20T14:08:39;33.70;99.90
18868;DHT22;9563;49.240;9.088;2023-08-20T14:11:08;33.70;99.90
18868;DHT22;9563;49.240;9.088;2023-08-20T14:13:35;33.80;99.90
18868;DHT22;9563;49.240;9.088;2023-08-20T14:16:02;33.80;99.90
18868;DHT22;9563;49.240;9.088;2023-08-20T14:18:29;33.80;99.80
18868;DHT22;9563;49.240;9.088;2023-08-20T14:20:56;33.90;98.50
18868;DHT22;9563;49.240;9.088;2023-08-20T14:23:23;33.90;96.00
18868;DHT22;9563;49.240;9.088;2023-08-20T14:25:50;33.90;98.90
18868;DHT22;9563;49.240;9.088;2023-08-20T14:28:21;33.90;99.10
18868;DHT22;9563;49.240;9.088;2023-08-20T14:30:48;33.90;95.60
18868;DHT22;9563;49.240;9.088;2023-08-20T14:33:16;34.00;96.70
18868;DHT22;9563;49.240;9.088;2023-08-20T14:35:43;34.00;96.90
18868;DHT22;9563;49.240;9.088;2023-08-20T14:38:11;34.00;99.70
18868;DHT22;9563;49.240;9.088;2023-08-20T14:40:38;33.90;99.90
18868;DHT22;9563;49.240;9.088;2023-08-20T14:43:06;33.90;99.90
18868;DHT22;9563;49.240;9.088;2023-08-20T14:45:34;33.90;99.90
18868;DHT22;9563;49.240;9.088;2023-08-20T14:48:01;33.80;99.90
18868;DHT22;9563;49.240;9.088;2023-08-20T14:50:28;33.70;99.90
18868;DHT22;9563;49.240;9.088;2023-08-20T14:52:55;33.70;98.50
18868;DHT22;9563;49.240;9.088;2023-08-20T14:55:22;33.60;99.00
18868;DHT22;9563;49.240;9.088;2023-08-20T14:57:49;33.60;99.60
18868;DHT22;9563;49.240;9.088;2023-08-20T15:00:16;33.50;99.70
18868;DHT22;9563;49.240;9.088;2023-08-20T15:02:45;33.50;99.90
18868;DHT22;9563;49.240;9.088;2023-08-20T15:05:12;33.50;99.90
18868;DHT22;9563;49.240;9.088;2023-08-20T15:07:40;33.40;99.90
18868;DHT22;9563;49.240;9.088;2023-08-20T15:10:07;33.40;99.90
18868;DHT22;9563;49.240;9.088;2023-08-20T15:12:35;33.50;99.90
18868;DHT22;9563;49.240;9.088;2023-08-20T15:15:02;33.30;99.90
18868;DHT22;9563;49.240;9.088;2023-08-20T15:17:29;33.30;99.90
18868;DHT22;9563;49.240;9.088;2023-08-20T15:19:58;33.30;99.90
18868;DHT22;9563;49.240;9.088;2023-08-20T15:22:25;33.20;99.90
18868;DHT22;9563;49.240;9.088;2023-08-20T15:24:52;33.20;99.90
18868;DHT22;9563;49.240;9.088;2023-08-20T15:27:19;33.20;99.90
18868;DHT22;9563;49.240;9.088;2023-08-20T15:29:46;33.10;99.90
18868;DHT22;9563;49.240;9.088;2023-08-20T15:32:12;33.00;99.90
18868;DHT22;9563;49.240;9.088;2023-08-20T15:34:39;33.00;99.90
18868;DHT22;9563;49.240;9.088;2023-08-20T15:37:08;32.90;99.90
18868;DHT22;9563;49.240;9.088;2023-08-20T15:39:34;32.80;99.90
18868;DHT22;9563;49.240;9.088;2023-08-20T15:42:01;32.70;99.90
18868;DHT22;9563;49.240;9.088;2023-08-20T15:44:28;32.60;99.90
18868;DHT22;9563;49.240;9.088;2023-08-20T15:46:55;32.50;99.90
18868;DHT22;9563;49.240;9.088;2023-08-20T15:49:22;32.40;99.90
18868;DHT22;9563;49.240;9.088;2023-08-20T15:51:49;32.30;99.90
18868;DHT22;9563;49.240;9.088;2023-08-20T15:54:17;32.40;99.90
18868;DHT22;9563;49.240;9.088;2023-08-20T15:56:44;32.30;99.90
18868;DHT22;9563;49.240;9.088;2023-08-20T15:59:11;32.30;99.90
18868;DHT22;9563;49.240;9.088;2023-08-20T16:01:39;32.20;99.90
18868;DHT22;9563;49.240;9.088;2023-08-20T16:04:06;32.20;99.90
18868;DHT22;9563;49.240;9.088;2023-08-20T16:06:33;32.20;99.90
18868;DHT22;9563;49.240;9.088;2023-08-20T16:09:00;32.20;99.90
18868;DHT22;9563;49.240;9.088;2023-08-20T16:11:30;32.10;99.90
18868;DHT22;9563;49.240;9.088;2023-08-20T16:13:57;32.20;99.90
18868;DHT22;9563;49.240;9.088;2023-08-20T16:16:24;32.10;99.90
18868;DHT22;9563;49.240;9.088;2023-08-20T16:18:51;32.10;99.90
18868;DHT22;9563;49.240;9.088;2023-08-20T16:21:17;32.10;99.90
18868;DHT22;9563;49.240;9.088;2023-08-20T16:23:44;32.10;99.90
18868;DHT22;9563;49.240;9.088;2023-08-20T16:26:11;32.20;99.90
18868;DHT22;9563;49.240;9.088;2023-08-20T16:28:40;32.20;99.90
18868;DHT22;9563;49.240;9.088;2023-08-20T16:31:07;32.10;99.90
18868;DHT22;9563;49.240;9.088;2023-08-20T16:33:35;32.10;99.90
18868;DHT22;9563;49.240;9.088;2023-08-20T16:36:02;32.00;99.90
18868;DHT22;9563;49.240;9.088;2023-08-20T16:38:29;31.90;99.90
18868;DHT22;9563;49.240;9.088;2023-08-20T16:40:59;31.90;99.90
18868;DHT22;9563;49.240;9.088;2023-08-20T16:43:26;31.80;99.90
18868;DHT22;9563;49.240;9.088;2023-08-20T16:45:55;31.70;99.90
18868;DHT22;9563;49.240;9.088;2023-08-20T16:48:24;31.60;99.90
18868;DHT22;9563;49.240;9.088;2023-08-20T16:50:51;31.60;99.90
18868;DHT22;9563;49.240;9.088;2023-08-20T16:53:17;31.60;99.90
18868;DHT22;9563;49.240;9.088;2023-08-20T16:55:50;31.50;99.90
18868;DHT22;9563;49.240;9.088;2023-08-20T16:58:16;31.40;99.90
18868;DHT22;9563;49.240;9.088;2023-08-20T17:00:43;31.20;99.90
18868;DHT22;9563;49.240;9.088;2023-08-20T17:03:12;31.10;99.90
18868;DHT22;9563;49.240;9.088;2023-08-20T17:05:38;31.00;99.90
18868;DHT22;9563;49.240;9.088;2023-08-20T17:08:06;31.00;99.90
18868;DHT22;9563;49.240;9.088;2023-08-20T17:10:34;30.90;99.90
18868;DHT22;9563;49.240;9.088;2023-08-20T17:13:01;30.70;99.90
18868;DHT22;9563;49.240;9.088;2023-08-20T17:15:28;30.70;99.90
18868;DHT22;9563;49.240;9.088;2023-08-20T17:17:55;30.60;99.90
18868;DHT22;9563;49.240;9.088;2023-08-20T17:20:23;30.60;99.90
18868;DHT22;9563;49.240;9.088;2023-08-20T17:22:50;30.50;99.90
18868;DHT22;9563;49.240;9.088;2023-08-20T17:25:16;30.40;99.90
18868;DHT22;9563;49.240;9.088;2023-08-20T17:27:45;30.40;99.90
18868;DHT22;9563;49.240;9.088;2023-08-20T17:30:12;30.30;99.90
18868;DHT22;9563;49.240;9.088;2023-08-20T17:32:39;30.20;99.90
18868;DHT22;9563;49.240;9.088;2023-08-20T17:35:07;30.10;99.90
18868;DHT22;9563;49.240;9.088;2023-08-20T17:37:36;30.10;99.90
18868;DHT22;9563;49.240;9.088;2023-08-20T17:40:03;30.00;99.90
18868;DHT22;9563;49.240;9.088;2023-08-20T17:42:30;29.90;99.90
18868;DHT22;9563;49.240;9.088;2023-08-20T17:44:57;29.80;99.90
18868;DHT22;9563;49.240;9.088;2023-08-20T17:47:23;29.80;99.90
18868;DHT22;9563;49.240;9.088;2023-08-20T17:49:51;29.70;99.90
18868;DHT22;9563;49.240;9.088;2023-08-20T17:52:20;29.60;99.90
18868;DHT22;9563;49.240;9.088;2023-08-20T17:54:48;29.50;99.90
18868;DHT22;9563;49.240;9.088;2023-08-20T17:57:15;29.50;99.90
18868;DHT22;9563;49.240;9.088;2023-08-20T17:59:42;29.40;99.90
18868;DHT22;9563;49.240;9.088;2023-08-20T18:02:09;29.30;99.90
18868;DHT22;9563;49.240;9.088;2023-08-20T18:04:36;29.20;99.90
18868;DHT22;9563;49.240;9.088;2023-08-20T18:07:03;29.20;99.90
18868;DHT22;9563;49.240;9.088;2023-08-20T18:09:30;29.00;99.90
18868;DHT22;9563;49.240;9.088;2023-08-20T18:12:02;29.00;99.90
18868;DHT22;9563;49.240;9.088;2023-08-20T18:14:29;28.90;99.90
18868;DHT22;9563;49.240;9.088;2023-08-20T18:16:56;28.80;99.90
18868;DHT22;9563;49.240;9.088;2023-08-20T18:19:23;28.70;99.90
18868;DHT22;9563;49.240;9.088;2023-08-20T18:21:50;28.70;99.90
18868;DHT22;9563;49.240;9.088;2023-08-20T18:24:17;28.60;99.90
18868;DHT22;9563;49.240;9.088;2023-08-20T18:26:44;28.50;99.90
18868;DHT22;9563;49.240;9.088;2023-08-20T18:29:12;28.40;99.90
18868;DHT22;9563;49.240;9.088;2023-08-20T18:31:39;28.40;99.90
18868;DHT22;9563;49.240;9.088;2023-08-20T18:34:06;28.30;99.90
18868;DHT22;9563;49.240;9.088;2023-08-20T18:36:34;28.20;99.90
18868;DHT22;9563;49.240;9.088;2023-08-20T18:39:02;28.20;99.90
18868;DHT22;9563;49.240;9.088;2023-08-20T18:41:29;28.10;99.90
18868;DHT22;9563;49.240;9.088;2023-08-20T18:43:56;28.00;99.90
18868;DHT22;9563;49.240;9.088;2023-08-20T18:46:25;27.90;99.90
18868;DHT22;9563;49.240;9.088;2023-08-20T18:48:52;27.90;99.90
18868;DHT22;9563;49.240;9.088;2023-08-20T18:51:21;27.80;99.90
18868;DHT22;9563;49.240;9.088;2023-08-20T18:53:48;27.80;99.90
18868;DHT22;9563;49.240;9.088;2023-08-20T18:56:15;27.70;99.90
18868;DHT22;9563;49.240;9.088;2023-08-20T18:58:43;27.70;99.90
18868;DHT22;9563;49.240;9.088;2023-08-20T19:01:10;27.60;99.90
18868;DHT22;9563;49.240;9.088;2023-08-20T19:03:39;27.50;99.90
18868;DHT22;9563;49.240;9.088;2023-08-20T19:06:06;27.50;99.90
18868;DHT22;9563;49.240;9.088;2023-08-20T19:08:33;27.40;99.90
18868;DHT22;9563;49.240;9.088;2023-08-20T19:11:00;27.40;99.90
18868;DHT22;9563;49.240;9.088;2023-08-20T19:13:27;27.40;99.90
18868;DHT22;9563;49.240;9.088;2023-08-20T19:15:54;27.30;99.90
18868;DHT22;9563;49.240;9.088;2023-08-20T19:18:21;27.30;99.90
18868;DHT22;9563;49.240;9.088;2023-08-20T19:20:51;27.20;99.90
18868;DHT22;9563;49.240;9.088;2023-08-20T19:23:19;27.20;99.90
18868;DHT22;9563;49.240;9.088;2023-08-20T19:25:47;27.20;99.90
18868;DHT22;9563;49.240;9.088;2023-08-20T19:28:14;27.10;99.90
18868;DHT22;9563;49.240;9.088;2023-08-20T19:30:44;27.00;99.90
18868;DHT22;9563;49.240;9.088;2023-08-20T19:33:11;27.00;99.90
18868;DHT22;9563;49.240;9.088;2023-08-20T19:35:39;27.00;99.90
18868;DHT22;9563;49.240;9.088;2023-08-20T19:38:08;27.00;99.90
18868;DHT22;9563;49.240;9.088;2023-08-20T19:40:35;27.00;99.90
18868;DHT22;9563;49.240;9.088;2023-08-20T19:43:03;27.00;99.90
18868;DHT22;9563;49.240;9.088;2023-08-20T19:45:30;26.90;99.90
18868;DHT22;9563;49.240;9.088;2023-08-20T19:47:57;26.80;99.90